createdAt,value
2022-11-07T00:00:50.307Z,100781.98
2022-11-07T00:03:20.476Z,100776.09
2022-11-07T00:05:50.224Z,100774.11
2022-11-07T00:08:19.959Z,100775.26
2022-11-07T00:10:53.023Z,100771.09
2022-11-07T00:13:22.499Z,100777.16
2022-11-07T00:15:52.227Z,100787.77
2022-11-07T00:18:22.196Z,100783.86
2022-11-07T00:20:51.920Z,100777.64
2022-11-07T00:23:21.656Z,100784.16
2022-11-07T00:25:51.394Z,100788.70
2022-11-07T00:28:21.139Z,100785.03
2022-11-07T00:30:50.883Z,100780.28
2022-11-07T00:33:20.652Z,100790.91
2022-11-07T00:35:50.377Z,100784.91
2022-11-07T00:38:20.107Z,100792.39
2022-11-07T00:41:00.493Z,100793.13
2022-11-07T00:43:30.964Z,100797.53
2022-11-07T00:46:03.415Z,100791.98
2022-11-07T00:48:33.478Z,100791.98
2022-11-07T00:51:12.257Z,100797.73
2022-11-07T00:53:43.614Z,100791.64
2022-11-07T00:56:16.325Z,100799.63
2022-11-07T00:58:45.740Z,100801.20
2022-11-07T01:01:19.983Z,100802.38
2022-11-07T01:04:08.290Z,100802.38
2022-11-07T01:06:41.487Z,100808.03
2022-11-07T01:09:14.052Z,100808.47
2022-11-07T01:11:44.850Z,100808.47
2022-11-07T01:14:17.037Z,100806.86
2022-11-07T01:16:47.429Z,100809.30
2022-11-07T01:19:18.722Z,100809.92
2022-11-07T01:21:49.841Z,100815.08
2022-11-07T01:24:19.801Z,100809.83
2022-11-07T01:26:51.635Z,100818.20
2022-11-07T01:29:21.770Z,100826.09
2022-11-07T01:31:51.484Z,100824.64
2022-11-07T01:34:21.215Z,100830.41
2022-11-07T01:36:51.312Z,100831.35
2022-11-07T01:39:21.052Z,100843.30
2022-11-07T01:41:50.793Z,100831.88
2022-11-07T01:44:23.654Z,100832.93
2022-11-07T01:46:55.618Z,100837.84
2022-11-07T01:49:28.361Z,100841.09
2022-11-07T01:52:04.275Z,100844.36
2022-11-07T01:54:40.509Z,100842.27
2022-11-07T01:57:13.408Z,100837.42
2022-11-07T01:59:43.385Z,100837.42
2022-11-07T02:02:13.865Z,100834.69
2022-11-07T02:04:44.853Z,100846.13
2022-11-07T02:07:20.050Z,100847.07
2022-11-07T02:09:52.166Z,100847.81
2022-11-07T02:12:24.631Z,100851.30
2022-11-07T02:14:55.799Z,100840.89
2022-11-07T02:17:25.541Z,100844.77
2022-11-07T02:19:56.927Z,100845.94
2022-11-07T02:22:32.118Z,100850.55
2022-11-07T02:25:04.494Z,100842.04
2022-11-07T02:27:35.590Z,100854.36
2022-11-07T02:30:13.069Z,100842.04
2022-11-07T02:32:42.861Z,100844.80
2022-11-07T02:35:40.783Z,100844.80
2022-11-07T02:38:17.351Z,100841.95
2022-11-07T02:40:50.725Z,100841.50
2022-11-07T02:43:23.386Z,100841.75
2022-11-07T02:45:54.574Z,100838.38
2022-11-07T02:48:25.695Z,100840.15
2022-11-07T02:50:55.752Z,100835.12
2022-11-07T02:53:25.793Z,100833.64
2022-11-07T02:55:55.541Z,100839.53
2022-11-07T02:58:25.172Z,100841.41
2022-11-07T03:00:54.909Z,100833.67
2022-11-07T03:03:24.700Z,100831.36
2022-11-07T03:05:54.449Z,100836.80
2022-11-07T03:08:24.256Z,100831.34
2022-11-07T03:10:53.997Z,100833.77
2022-11-07T03:13:24.423Z,100836.92
2022-11-07T03:15:55.986Z,100826.63
2022-11-07T03:18:26.057Z,100828.00
2022-11-07T03:20:55.796Z,100831.45
2022-11-07T03:23:25.553Z,100837.43
2022-11-07T03:25:55.560Z,100838.27
2022-11-07T03:28:25.406Z,100842.80
2022-11-07T03:30:55.595Z,100846.27
2022-11-07T03:33:25.349Z,100841.22
2022-11-07T03:35:55.088Z,100836.09
2022-11-07T03:38:24.612Z,100848.36
2022-11-07T03:40:54.355Z,100850.99
2022-11-07T03:43:24.086Z,100855.73
2022-11-07T03:45:53.837Z,100843.95
2022-11-07T03:48:23.278Z,100846.69
2022-11-07T03:50:53.026Z,100848.58
2022-11-07T03:53:25.965Z,100859.50
2022-11-07T03:55:56.532Z,100868.75
2022-11-07T03:58:27.204Z,100859.50
2022-11-07T04:00:56.926Z,100858.55
2022-11-07T04:03:26.772Z,100863.28
2022-11-07T04:05:56.526Z,100865.48
2022-11-07T04:08:26.423Z,100861.20
2022-11-07T04:10:56.157Z,100863.17
2022-11-07T04:13:43.481Z,100864.44
2022-11-07T04:16:31.817Z,100862.34
2022-11-07T04:19:02.225Z,100859.30
2022-11-07T04:21:32.347Z,100860.46
2022-11-07T04:24:02.078Z,100857.52
2022-11-07T04:26:49.690Z,100856.25
2022-11-07T04:29:19.424Z,100861.28
2022-11-07T04:31:49.160Z,100847.83
2022-11-07T04:34:18.932Z,100853.61
2022-11-07T04:36:48.716Z,100857.71
2022-11-07T04:39:18.471Z,100862.33
2022-11-07T04:41:48.391Z,100856.03
2022-11-07T04:44:17.854Z,100856.03
2022-11-07T04:46:47.597Z,100855.80
2022-11-07T04:49:17.345Z,100855.80
2022-11-07T04:51:47.391Z,100863.17
2022-11-07T04:54:17.394Z,100855.80
2022-11-07T04:56:47.218Z,100855.80
2022-11-07T04:59:16.978Z,100860.87
2022-11-07T05:01:46.819Z,100871.28
2022-11-07T05:04:16.785Z,100872.20
2022-11-07T05:06:46.621Z,100870.44
2022-11-07T05:09:18.110Z,100860.87
2022-11-07T05:11:49.285Z,100862.99
2022-11-07T05:14:19.019Z,100864.31
2022-11-07T05:16:50.555Z,100862.12
2022-11-07T05:19:21.230Z,100865.07
2022-11-07T05:22:08.640Z,100859.52
2022-11-07T05:24:38.623Z,100877.89
2022-11-07T05:27:10.035Z,100873.05
2022-11-07T05:29:39.839Z,100864.45
2022-11-07T05:32:10.273Z,100864.45
2022-11-07T05:34:39.998Z,100872.65
2022-11-07T05:37:11.267Z,100874.53
2022-11-07T05:39:41.009Z,100873.05
2022-11-07T05:42:10.742Z,100879.08
2022-11-07T05:44:40.191Z,100872.83
2022-11-07T05:47:10.190Z,100879.78
2022-11-07T05:49:39.957Z,100881.91
2022-11-07T05:52:10.386Z,100885.77
2022-11-07T05:54:40.119Z,100872.74
2022-11-07T05:57:09.847Z,100881.88
2022-11-07T05:59:39.601Z,100882.40
2022-11-07T06:02:10.352Z,100882.42
2022-11-07T06:04:40.343Z,100887.55
2022-11-07T06:07:10.089Z,100891.25
2022-11-07T06:09:39.837Z,100882.61
2022-11-07T06:12:10.154Z,100890.32
2022-11-07T06:14:39.891Z,100887.86
2022-11-07T06:17:09.866Z,100880.50
2022-11-07T06:19:39.366Z,100880.50
2022-11-07T06:22:10.050Z,100875.11
2022-11-07T06:24:39.775Z,100876.88
2022-11-07T06:27:09.621Z,100882.92
2022-11-07T06:29:39.387Z,100884.20
2022-11-07T06:32:10.402Z,100889.67
2022-11-07T06:34:40.147Z,100888.83
2022-11-07T06:37:09.894Z,100888.83
2022-11-07T06:39:39.932Z,100889.67
2022-11-07T06:42:11.030Z,100886.81
2022-11-07T06:44:41.066Z,100895.23
2022-11-07T06:47:11.192Z,100896.91
2022-11-07T06:49:40.943Z,100900.51
2022-11-07T06:52:10.419Z,100901.97
2022-11-07T06:54:40.159Z,100910.91
2022-11-07T06:57:10.094Z,100903.95
2022-11-07T06:59:39.811Z,100916.56
2022-11-07T07:02:21.688Z,100917.28
2022-11-07T07:04:44.991Z,100926.44
2022-11-07T07:07:14.824Z,100912.47
2022-11-07T07:09:44.637Z,100921.81
2022-11-07T07:12:14.171Z,100917.49
2022-11-07T07:14:43.678Z,100922.43
2022-11-07T07:17:13.819Z,100926.41
2022-11-07T07:19:43.870Z,100925.13
2022-11-07T07:22:14.850Z,100930.50
2022-11-07T07:24:45.037Z,100932.00
2022-11-07T07:27:14.811Z,100929.08
2022-11-07T07:29:44.609Z,100927.30
2022-11-07T07:32:14.067Z,100934.38
2022-11-07T07:34:43.805Z,100938.56
2022-11-07T07:37:13.564Z,100945.08
2022-11-07T07:39:43.330Z,100939.70
2022-11-07T07:42:13.159Z,100935.73
2022-11-07T07:44:44.731Z,100949.88
2022-11-07T07:47:14.515Z,100944.92
2022-11-07T07:49:44.257Z,100941.70
2022-11-07T07:52:13.738Z,100948.22
2022-11-07T07:54:43.480Z,100955.66
2022-11-07T07:57:13.213Z,100952.41
2022-11-07T07:59:42.955Z,100955.73
2022-11-07T08:02:13.619Z,100954.66
2022-11-07T08:04:43.449Z,100954.66
2022-11-07T08:07:13.569Z,100963.62
2022-11-07T08:09:43.319Z,100961.65
2022-11-07T08:12:13.039Z,100980.98
2022-11-07T08:14:42.776Z,100967.03
2022-11-07T08:17:12.247Z,100980.04
2022-11-07T08:19:41.973Z,100969.69
2022-11-07T08:22:11.729Z,100975.84
2022-11-07T08:24:43.139Z,100978.73
2022-11-07T08:27:12.882Z,100984.19
2022-11-07T08:29:43.341Z,100989.92
2022-11-07T08:32:13.143Z,100981.98
2022-11-07T08:34:42.905Z,100982.51
2022-11-07T08:37:12.933Z,100992.02
2022-11-07T08:39:42.704Z,100990.66
2022-11-07T08:42:12.148Z,100985.55
2022-11-07T08:44:41.944Z,100994.47
2022-11-07T08:47:11.696Z,100988.80
2022-11-07T08:49:41.430Z,100989.66
2022-11-07T08:52:11.530Z,101000.01
2022-11-07T08:54:41.292Z,101005.89
2022-11-07T08:57:11.021Z,101003.52
2022-11-07T08:59:40.800Z,101009.95
2022-11-07T09:04:45.249Z,101019.71
2022-11-07T09:07:14.968Z,101020.02
2022-11-07T09:09:45.186Z,101020.02
2022-11-07T09:12:14.687Z,101028.14
2022-11-07T09:14:44.732Z,101028.90
2022-11-07T09:17:14.490Z,101027.66
2022-11-07T09:19:44.227Z,101031.91
2022-11-07T09:22:14.217Z,101026.81
2022-11-07T09:24:44.442Z,101037.66
2022-11-07T09:27:14.196Z,101031.58
2022-11-07T09:29:43.953Z,101037.16
2022-11-07T09:32:38.640Z,101044.47
2022-11-07T09:34:47.392Z,101041.31
2022-11-07T09:37:17.031Z,101043.02
2022-11-07T09:39:47.128Z,101043.41
2022-11-07T09:42:21.980Z,101052.14
2022-11-07T09:45:02.772Z,101049.75
2022-11-07T09:47:41.634Z,101057.63
2022-11-07T09:50:25.599Z,101048.20
2022-11-07T09:53:01.333Z,101052.83
2022-11-07T09:55:36.994Z,101050.52
2022-11-07T09:58:17.583Z,101055.18
2022-11-07T10:00:47.464Z,101060.13
2022-11-07T10:03:17.662Z,101070.84
2022-11-07T10:06:05.676Z,101068.36
2022-11-07T10:08:50.196Z,101075.41
2022-11-07T10:11:28.584Z,101069.66
2022-11-07T10:14:01.379Z,101056.89
2022-11-07T10:16:50.539Z,101050.39
2022-11-07T10:19:39.492Z,101044.83
2022-11-07T10:22:36.630Z,101056.36
2022-11-07T10:25:19.896Z,101067.59
2022-11-07T10:27:55.654Z,101067.88
2022-11-07T10:30:25.176Z,101059.73
2022-11-07T10:33:28.022Z,101062.52
2022-11-07T10:36:06.645Z,101064.60
2022-11-07T10:38:38.267Z,101067.56
2022-11-07T10:41:16.448Z,101078.94
2022-11-07T10:43:49.641Z,101074.45
2022-11-07T10:46:24.851Z,101078.81
2022-11-07T10:49:01.005Z,101078.51
2022-11-07T10:51:42.076Z,101087.94
2022-11-07T10:54:30.309Z,101084.85
2022-11-07T10:57:12.062Z,101079.88
2022-11-07T10:59:50.765Z,101075.66
2022-11-07T11:02:29.307Z,101079.99
2022-11-07T11:05:03.667Z,101079.18
2022-11-07T11:07:41.911Z,101082.46
2022-11-07T11:10:24.531Z,101077.89
2022-11-07T11:12:54.709Z,101072.70
2022-11-07T11:15:31.240Z,101084.02
2022-11-07T11:18:06.879Z,101081.57
2022-11-07T11:20:57.474Z,101087.42
2022-11-07T11:23:30.591Z,101090.33
2022-11-07T11:26:02.998Z,101079.00
2022-11-07T11:28:58.124Z,101073.03
2022-11-07T11:31:39.810Z,101082.71
2022-11-07T11:34:45.481Z,101083.47
2022-11-07T11:37:23.759Z,101076.38
2022-11-07T11:40:02.434Z,101042.27
2022-11-07T11:42:46.966Z,101042.27
2022-11-07T11:45:28.407Z,101068.21
2022-11-07T11:48:04.084Z,101068.50
2022-11-07T11:50:37.218Z,101057.10
2022-11-07T11:53:08.460Z,101059.50
2022-11-07T11:55:41.568Z,101056.53
2022-11-07T11:58:32.542Z,101066.58
2022-11-07T12:01:21.723Z,101054.06
2022-11-07T12:04:06.988Z,101062.65
2022-11-07T12:06:42.709Z,101063.61
2022-11-07T12:09:27.384Z,101062.61
2022-11-07T12:12:20.818Z,101062.61
2022-11-07T12:15:14.464Z,101060.14
2022-11-07T12:17:56.061Z,101051.47
2022-11-07T12:20:34.685Z,101059.27
2022-11-07T12:23:25.508Z,101064.08
2022-11-07T12:26:01.140Z,101066.75
2022-11-07T12:28:39.323Z,101073.20
2022-11-07T12:31:17.533Z,101064.05
2022-11-07T16:54:06.551Z,101070.50
2022-11-07T16:56:36.827Z,101069.20
2022-11-07T16:59:08.456Z,101059.12
2022-11-07T17:01:38.412Z,101063.78
2022-11-07T17:04:09.700Z,101075.30
2022-11-07T17:06:45.904Z,101069.42
2022-11-07T17:09:19.397Z,101064.85
2022-11-07T17:11:49.787Z,101067.58
2022-11-07T17:14:19.241Z,101078.05
2022-11-07T17:16:49.844Z,101076.52
2022-11-07T17:19:19.600Z,101079.34
2022-11-07T17:21:49.525Z,101080.27
2022-11-07T17:24:19.903Z,101080.27
2022-11-07T17:26:49.727Z,101074.98
2022-11-07T17:29:19.479Z,101074.73
2022-11-07T17:31:49.413Z,101076.44
2022-11-07T17:34:19.221Z,101076.44
2022-11-07T17:36:51.519Z,101077.56
2022-11-07T17:39:22.395Z,101069.11
2022-11-07T17:41:52.901Z,101075.65
2022-11-07T17:44:22.322Z,101076.90
2022-11-07T17:46:52.078Z,101077.21
2022-11-07T17:49:22.182Z,101084.97
2022-11-07T17:51:53.313Z,101084.97
2022-11-07T17:54:29.093Z,101081.70
2022-11-07T17:56:54.583Z,101080.11
2022-11-07T17:59:24.642Z,101069.95
2022-11-07T18:01:54.488Z,101067.89
2022-11-07T18:04:24.506Z,101078.73
2022-11-07T18:06:54.289Z,101068.13
2022-11-07T18:09:24.053Z,101076.97
2022-11-07T18:11:53.805Z,101082.65
2022-11-07T18:14:23.242Z,101079.05
2022-11-07T18:16:53.102Z,101081.63
2022-11-07T18:19:22.872Z,101077.73
2022-11-07T18:21:53.075Z,101070.50
2022-11-07T18:24:22.894Z,101078.89
2022-11-07T18:26:52.966Z,101074.61
2022-11-07T18:29:22.837Z,101083.08
2022-11-07T18:31:52.409Z,101083.86
2022-11-07T18:34:22.109Z,101083.72
2022-11-07T18:36:51.917Z,101079.73
2022-11-07T18:39:23.268Z,101079.80
2022-11-07T18:41:54.170Z,101084.68
2022-11-07T18:44:24.205Z,101091.33
2022-11-07T18:46:54.011Z,101086.00
2022-11-07T18:49:24.418Z,101084.92
2022-11-07T18:51:54.144Z,101080.94
2022-11-07T18:54:25.771Z,101084.09
2022-11-07T18:56:56.074Z,101077.52
2022-11-07T18:59:25.844Z,101078.05
2022-11-07T19:01:55.946Z,101083.24
2022-11-07T19:04:25.478Z,101081.01
2022-11-07T19:06:58.277Z,101076.73
2022-11-07T19:09:32.941Z,101079.48
2022-11-07T19:12:02.689Z,101082.53
2022-11-07T19:14:32.771Z,101075.53
2022-11-07T19:17:02.580Z,101078.27
2022-11-07T19:19:34.719Z,101077.59
2022-11-07T19:22:06.495Z,101064.63
2022-11-07T19:24:36.249Z,101064.63
2022-11-07T19:27:06.358Z,101074.47
2022-11-07T19:29:36.572Z,101078.59
2022-11-07T19:32:07.953Z,101074.95
2022-11-07T19:34:38.068Z,101077.22
2022-11-07T19:37:07.861Z,101075.68
2022-11-07T19:39:38.092Z,101076.30
2022-11-07T19:42:09.704Z,101078.13
2022-11-07T19:44:43.015Z,101063.17
2022-11-07T19:47:10.594Z,101063.17
2022-11-07T19:49:40.333Z,101084.09
2022-11-07T19:52:11.294Z,101076.67
2022-11-07T19:54:42.211Z,101081.84
2022-11-07T19:57:12.106Z,101089.70
2022-11-07T19:59:41.831Z,101078.58
2022-11-07T20:04:46.741Z,101082.83
2022-11-07T20:07:16.491Z,101088.55
2022-11-07T20:09:46.290Z,101090.54
2022-11-07T20:12:15.855Z,101086.50
2022-11-07T20:14:45.672Z,101088.19
2022-11-07T20:17:15.389Z,101089.08
2022-11-07T20:19:45.190Z,101091.30
2022-11-07T20:22:14.950Z,101092.27
2022-11-07T20:24:44.993Z,101094.36
2022-11-07T20:27:14.755Z,101094.36
2022-11-07T20:29:44.497Z,101094.08
2022-11-07T20:32:13.995Z,101095.12
2022-11-07T20:34:43.746Z,101102.70
2022-11-07T20:37:15.133Z,101096.52
2022-11-07T20:39:46.814Z,101101.95
2022-11-07T20:42:16.576Z,101097.79
2022-11-07T20:44:46.091Z,101097.28
2022-11-07T20:47:15.852Z,101104.95
2022-11-07T20:49:45.579Z,101102.70
2022-11-07T20:52:15.395Z,101106.20
2022-11-07T20:54:45.126Z,101107.06
2022-11-07T20:57:14.873Z,101107.42
2022-11-07T20:59:45.358Z,101107.64
2022-11-07T21:02:15.287Z,101105.55
2022-11-07T21:05:11.170Z,101117.88
2022-11-07T21:07:18.448Z,101107.06
2022-11-07T21:09:48.338Z,101107.63
2022-11-07T21:12:18.099Z,101102.81
2022-11-07T21:14:47.841Z,101104.70
2022-11-07T21:17:17.658Z,101107.23
2022-11-07T21:19:47.434Z,101102.19
2022-11-07T21:22:17.172Z,101102.20
2022-11-07T21:24:46.987Z,101102.35
2022-11-07T21:27:16.736Z,101098.02
2022-11-07T21:29:46.478Z,101099.90
2022-11-07T21:32:16.237Z,101099.90
2022-11-07T21:34:47.156Z,101091.52
2022-11-07T21:37:16.903Z,101094.16
2022-11-07T21:39:46.942Z,101093.99
2022-11-07T21:42:16.701Z,101099.00
2022-11-07T21:44:46.557Z,101095.66
2022-11-07T21:47:16.590Z,101094.09
2022-11-07T21:49:48.007Z,101091.83
2022-11-07T21:52:17.654Z,101100.91
2022-11-07T21:54:47.384Z,101104.14
2022-11-07T21:57:17.222Z,101094.41
2022-11-07T21:59:47.029Z,101092.65
2022-11-07T22:02:16.981Z,101092.55
2022-11-07T22:04:46.697Z,101089.62
2022-11-07T22:07:16.744Z,101086.27
2022-11-07T22:09:46.209Z,101091.34
2022-11-07T22:12:15.643Z,101092.81
2022-11-07T22:14:47.015Z,101085.13
2022-11-07T22:17:16.777Z,101083.45
2022-11-07T22:19:46.975Z,101083.29
2022-11-07T22:22:16.997Z,101083.29
2022-11-07T22:24:46.906Z,101080.86
2022-11-07T22:27:16.402Z,101078.88
2022-11-07T22:29:46.815Z,101078.53
2022-11-07T22:32:16.257Z,101077.30
2022-11-07T22:34:45.990Z,101073.89
2022-11-07T22:37:15.729Z,101068.45
2022-11-07T22:39:45.239Z,101066.12
2022-11-07T22:42:17.405Z,101075.03
2022-11-07T22:44:47.582Z,101071.41
2022-11-07T22:47:17.336Z,101065.25
2022-11-07T22:49:47.074Z,101063.70
2022-11-07T22:52:16.873Z,101060.63
2022-11-07T22:54:46.610Z,101064.19
2022-11-07T22:57:17.968Z,101064.41
2022-11-07T22:59:48.000Z,101061.50
2022-11-07T23:02:17.950Z,101054.98
2022-11-07T23:04:47.793Z,101061.31
2022-11-07T23:07:17.306Z,101065.41
2022-11-07T23:09:47.018Z,101058.91
2022-11-07T23:12:16.612Z,101057.23
2022-11-07T23:14:46.826Z,101054.10
2022-11-07T23:17:16.320Z,101045.41
2022-11-07T23:19:46.048Z,101046.87
2022-11-07T23:22:15.517Z,101040.97
2022-11-07T23:24:47.211Z,101039.00
2022-11-07T23:27:18.507Z,101039.33
2022-11-07T23:29:48.271Z,101035.06
2022-11-07T23:32:18.199Z,101033.48
2022-11-07T23:34:49.591Z,101031.58
2022-11-07T23:37:19.355Z,101031.15
2022-11-07T23:39:49.091Z,101027.22
2022-11-07T23:42:18.804Z,101030.05
2022-11-07T23:45:06.214Z,101025.21
2022-11-07T23:47:53.943Z,101024.91
2022-11-07T23:50:41.189Z,101027.53
2022-11-07T23:53:12.574Z,101019.69
2022-11-07T23:55:42.330Z,101027.11
2022-11-07T23:58:29.626Z,101018.84
